createdAt,value
2023-03-07T00:01:53.488Z,0.69
2023-03-07T00:04:58.161Z,0.83
2023-03-07T00:08:02.433Z,0.91
2023-03-07T00:11:09.405Z,0.57
2023-03-07T00:14:13.625Z,0.81
2023-03-07T00:17:18.450Z,1.31
2023-03-07T00:20:23.004Z,1.56
2023-03-07T00:23:27.605Z,1.92
2023-03-07T00:26:32.371Z,1.96
2023-03-07T00:29:36.833Z,2.29
2023-03-07T00:32:41.317Z,2.37
2023-03-07T00:35:45.627Z,2.41
2023-03-07T00:38:50.907Z,2.97
2023-03-07T00:41:55.441Z,2.89
2023-03-07T00:44:59.677Z,2.34
2023-03-07T00:48:04.358Z,2.34
2023-03-07T00:51:12.058Z,2.17
2023-03-07T00:54:17.126Z,2.39
2023-03-07T00:57:21.424Z,2.63
2023-03-07T01:00:25.810Z,3.17
2023-03-07T01:03:31.082Z,3.24
2023-03-07T01:06:36.697Z,2.99
2023-03-07T01:09:40.694Z,3.22
2023-03-07T01:12:48.425Z,3.11
2023-03-07T01:15:52.833Z,3.62
2023-03-07T01:19:00.387Z,4.39
2023-03-07T01:22:08.371Z,5.03
2023-03-07T01:25:13.930Z,6.17
2023-03-07T01:28:18.165Z,5.60
2023-03-07T01:31:23.019Z,4.03
2023-03-07T01:34:27.477Z,4.26
2023-03-07T01:37:31.871Z,4.19
2023-03-07T01:40:36.233Z,4.17
2023-03-07T01:43:41.001Z,5.31
2023-03-07T01:46:56.668Z,7.12
2023-03-07T01:50:21.117Z,7.67
2023-03-07T01:53:25.009Z,7.55
2023-03-07T01:56:29.867Z,7.58
2023-03-07T01:59:38.085Z,7.22
2023-03-07T02:02:45.752Z,7.34
2023-03-07T02:05:59.808Z,6.94
2023-03-07T02:09:04.993Z,7.22
2023-03-07T02:12:10.085Z,6.47
2023-03-07T02:15:16.152Z,6.75
2023-03-07T02:18:25.197Z,6.81
2023-03-07T02:21:47.315Z,6.46
2023-03-07T02:24:54.909Z,5.93
2023-03-07T02:28:00.462Z,5.87
2023-03-07T02:31:08.522Z,5.52
2023-03-07T02:34:29.822Z,5.83
2023-03-07T02:37:48.696Z,6.04
2023-03-07T02:40:56.675Z,6.23
2023-03-07T02:44:01.243Z,6.16
2023-03-07T02:47:09.777Z,6.07
2023-03-07T02:50:16.253Z,6.02
2023-03-07T02:53:23.317Z,6.30
2023-03-07T02:56:27.236Z,6.45
2023-03-07T02:59:31.897Z,6.39
2023-03-07T03:02:36.424Z,6.30
2023-03-07T03:05:40.548Z,6.02
2023-03-07T03:08:45.071Z,6.28
2023-03-07T03:11:49.427Z,6.29
2023-03-07T03:14:57.141Z,6.35
2023-03-07T03:18:01.808Z,6.27
2023-03-07T03:21:12.077Z,6.30
2023-03-07T03:24:16.775Z,6.14
2023-03-07T03:27:23.167Z,6.32
2023-03-07T03:30:33.133Z,6.26
2023-03-07T03:33:40.042Z,6.12
2023-03-07T03:36:44.654Z,6.02
2023-03-07T03:39:48.765Z,5.96
2023-03-07T03:42:53.039Z,6.13
2023-03-07T03:45:59.817Z,6.51
2023-03-07T03:49:06.200Z,6.31
2023-03-07T03:52:11.514Z,6.49
2023-03-07T03:55:16.439Z,6.59
2023-03-07T03:58:20.927Z,6.57
2023-03-07T04:01:27.954Z,6.66
2023-03-07T04:04:35.589Z,6.54
2023-03-07T04:07:40.479Z,6.62
2023-03-07T04:10:45.299Z,6.51
2023-03-07T04:13:50.213Z,6.88
2023-03-07T04:16:54.964Z,6.57
2023-03-07T04:19:59.404Z,6.58
2023-03-07T04:23:04.113Z,6.75
2023-03-07T04:26:10.338Z,6.70
2023-03-07T04:29:15.610Z,6.52
2023-03-07T04:32:27.973Z,6.75
2023-03-07T04:35:32.767Z,6.69
2023-03-07T04:38:39.785Z,6.68
2023-03-07T04:41:43.753Z,6.70
2023-03-07T04:44:59.438Z,7.08
2023-03-07T04:48:04.303Z,6.58
2023-03-07T04:51:10.624Z,6.89
2023-03-07T04:54:15.108Z,6.25
2023-03-07T04:57:21.828Z,6.42
2023-03-07T05:00:26.250Z,6.43
2023-03-07T05:03:31.539Z,5.96
2023-03-07T05:06:36.230Z,6.16
2023-03-07T05:09:40.791Z,5.95
2023-03-07T05:12:45.393Z,6.51
2023-03-07T05:15:58.160Z,6.59
2023-03-07T05:19:05.932Z,6.88
2023-03-07T05:22:10.535Z,6.43
2023-03-07T05:25:15.442Z,6.52
2023-03-07T05:28:20.282Z,6.52
2023-03-07T05:31:25.307Z,6.64
2023-03-07T05:34:29.732Z,6.89
2023-03-07T05:37:34.769Z,6.82
2023-03-07T05:40:39.787Z,6.94
2023-03-07T05:43:44.813Z,6.90
2023-03-07T05:46:48.937Z,6.92
2023-03-07T05:49:53.458Z,6.89
2023-03-07T05:52:57.890Z,7.04
2023-03-07T05:56:06.414Z,6.69
2023-03-07T05:59:16.311Z,6.66
2023-03-07T06:02:22.346Z,6.68
2023-03-07T06:05:27.029Z,6.73
2023-03-07T06:08:31.514Z,6.30
2023-03-07T06:11:36.315Z,6.10
2023-03-07T06:14:40.820Z,6.07
2023-03-07T06:17:45.359Z,6.12
2023-03-07T06:21:00.567Z,5.96
2023-03-07T06:24:08.721Z,6.05
2023-03-07T06:27:13.588Z,5.63
2023-03-07T06:30:24.287Z,5.99
2023-03-07T06:33:28.827Z,6.12
2023-03-07T06:36:36.664Z,5.94
2023-03-07T06:39:44.392Z,6.06
2023-03-07T06:42:49.316Z,6.04
2023-03-07T06:46:01.618Z,5.86
2023-03-07T06:49:11.398Z,5.77
2023-03-07T06:52:19.143Z,5.83
2023-03-07T06:55:25.796Z,5.97
2023-03-07T06:58:33.425Z,5.61
2023-03-07T07:01:41.505Z,5.80
2023-03-07T07:04:47.756Z,5.41
2023-03-07T07:07:52.944Z,5.65
2023-03-07T07:11:00.359Z,5.65
2023-03-07T07:14:08.919Z,5.47
2023-03-07T07:17:21.150Z,5.59
2023-03-07T07:20:29.393Z,4.98
2023-03-07T07:23:41.376Z,5.11
2023-03-07T07:26:46.514Z,5.51
2023-03-07T07:29:51.212Z,5.28
2023-03-07T07:32:56.153Z,5.29
2023-03-07T07:36:03.226Z,5.24
2023-03-07T07:39:08.651Z,5.11
2023-03-07T07:42:15.204Z,4.97
2023-03-07T07:45:36.830Z,4.92
2023-03-07T07:48:43.425Z,4.83
2023-03-07T07:51:48.544Z,4.83
2023-03-07T07:54:53.293Z,4.47
2023-03-07T07:58:00.753Z,4.86
2023-03-07T08:01:23.464Z,4.69
2023-03-07T08:04:27.800Z,4.58
2023-03-07T08:07:34.885Z,4.57
2023-03-07T08:10:44.019Z,4.28
2023-03-07T08:13:51.545Z,4.39
2023-03-07T08:16:55.875Z,4.22
2023-03-07T08:20:09.224Z,4.28
2023-03-07T08:23:15.278Z,4.04
2023-03-07T08:26:22.640Z,3.99
2023-03-07T08:29:30.303Z,4.01
2023-03-07T08:32:37.803Z,3.98
2023-03-07T08:35:42.502Z,3.90
2023-03-07T08:38:53.416Z,4.04
2023-03-07T08:41:57.792Z,4.01
2023-03-07T08:45:02.124Z,3.88
2023-03-07T08:48:07.099Z,4.13
2023-03-07T08:51:15.829Z,4.02
2023-03-07T08:54:20.235Z,3.91
2023-03-07T08:57:26.415Z,3.87
2023-03-07T09:00:30.999Z,3.93
2023-03-07T09:03:36.797Z,3.42
2023-03-07T09:06:42.959Z,3.36
2023-03-07T09:09:48.727Z,3.53
2023-03-07T09:12:53.210Z,3.65
2023-03-07T09:15:57.588Z,3.96
2023-03-07T09:19:02.512Z,4.04
2023-03-07T09:22:06.794Z,3.94
2023-03-07T09:25:12.241Z,4.16
2023-03-07T09:28:16.614Z,3.86
2023-03-07T09:31:21.170Z,4.01
2023-03-07T09:34:25.261Z,4.16
2023-03-07T09:37:29.864Z,4.14
2023-03-07T09:40:34.647Z,3.77
2023-03-07T09:43:52.890Z,3.57
2023-03-07T09:47:26.795Z,4.09
2023-03-07T09:50:53.130Z,3.94
2023-03-07T09:54:21.158Z,3.46
2023-03-07T09:57:55.662Z,3.17
2023-03-07T10:01:02.425Z,3.10
2023-03-07T10:07:44.737Z,2.83
2023-03-07T10:11:14.703Z,2.72
2023-03-07T10:14:42.373Z,2.86
2023-03-07T10:18:05.762Z,2.69
2023-03-07T10:21:50.117Z,2.67
2023-03-07T10:25:24.576Z,2.64
2023-03-07T10:28:33.264Z,2.64
2023-03-07T10:31:43.511Z,2.70
2023-03-07T10:34:52.820Z,2.75
2023-03-07T10:38:25.711Z,2.84
2023-03-07T10:41:30.346Z,3.04
2023-03-07T10:44:37.403Z,2.93
2023-03-07T10:47:44.251Z,2.85
2023-03-07T10:51:25.319Z,2.69
2023-03-07T10:54:38.835Z,2.84
2023-03-07T10:57:44.020Z,2.77
2023-03-07T11:01:08.228Z,2.41
2023-03-07T11:04:25.605Z,2.47
2023-03-07T11:07:36.593Z,2.23
2023-03-07T11:10:41.459Z,2.34
2023-03-07T11:14:16.147Z,2.31
2023-03-07T11:17:42.108Z,2.14
2023-03-07T11:20:56.039Z,2.11
2023-03-07T11:24:05.720Z,2.22
2023-03-07T11:27:25.539Z,2.31
2023-03-07T11:30:42.138Z,2.17
2023-03-07T11:33:59.594Z,2.08
2023-03-07T11:37:30.310Z,2.21
2023-03-07T11:40:44.528Z,2.06
2023-03-07T11:43:54.768Z,1.62
2023-03-07T11:47:34.618Z,1.56
2023-03-07T11:50:45.482Z,1.61
2023-03-07T11:54:32.763Z,1.59
2023-03-07T11:58:18.483Z,1.61
2023-03-07T12:01:44.955Z,1.49
2023-03-07T12:05:11.604Z,1.26
2023-03-07T12:08:39.839Z,1.52
2023-03-07T12:11:50.410Z,1.42
2023-03-07T12:15:03.079Z,1.46
2023-03-07T12:18:20.793Z,1.43
2023-03-07T12:21:56.122Z,1.27
2023-03-07T12:25:09.228Z,1.40
2023-03-07T12:28:51.930Z,1.52
2023-03-07T12:32:01.998Z,0.98
2023-03-07T12:35:49.684Z,1.35
2023-03-07T12:39:05.931Z,1.52
2023-03-07T12:42:36.146Z,1.49
2023-03-07T12:46:20.598Z,1.67
2023-03-07T12:49:49.740Z,1.48
2023-03-07T12:53:23.225Z,1.44
2023-03-07T12:56:37.406Z,1.61
2023-03-07T12:59:44.570Z,1.79
2023-03-07T13:03:00.631Z,1.68
2023-03-07T13:06:05.481Z,1.62
2023-03-07T13:09:14.992Z,1.78
2023-03-07T13:12:22.572Z,1.90
2023-03-07T13:15:28.098Z,2.08
2023-03-07T13:18:33.957Z,1.76
2023-03-07T13:21:37.841Z,1.46
2023-03-07T13:24:42.391Z,1.40
2023-03-07T13:28:07.118Z,1.33
2023-03-07T13:31:27.494Z,1.51
2023-03-07T13:34:48.480Z,1.65
2023-03-07T13:37:54.210Z,1.77
2023-03-07T13:41:03.392Z,1.56
2023-03-07T13:44:29.599Z,1.30
2023-03-07T13:47:46.541Z,1.10
2023-03-07T13:50:50.449Z,1.06
2023-03-07T13:54:14.758Z,0.86
2023-03-07T13:57:21.828Z,0.88
2023-03-07T14:00:33.119Z,0.99
2023-03-07T14:03:41.688Z,0.86
2023-03-07T14:06:52.980Z,1.04
2023-03-07T14:10:19.546Z,0.92
2023-03-07T14:13:37.417Z,0.81
2023-03-07T14:17:19.779Z,1.06
2023-03-07T14:20:32.774Z,1.04
2023-03-07T14:23:48.001Z,1.13
2023-03-07T14:26:57.594Z,1.12
2023-03-07T14:30:01.566Z,0.81
2023-03-07T14:33:07.086Z,0.94
2023-03-07T14:36:27.416Z,0.86
2023-03-07T14:39:57.801Z,1.01
2023-03-07T14:43:41.695Z,0.66
2023-03-07T14:46:54.773Z,0.92
2023-03-07T14:50:19.662Z,0.95
2023-03-07T14:53:27.257Z,0.85
2023-03-07T14:56:33.805Z,0.51
2023-03-07T14:59:37.725Z,0.54
2023-03-07T15:02:55.466Z,0.32
2023-03-07T15:06:01.795Z,0.11
2023-03-07T15:09:11.816Z,0.16
2023-03-07T15:12:23.794Z,-0.07
2023-03-07T15:15:36.861Z,-0.17
2023-03-07T15:18:52.254Z,-0.38
2023-03-07T15:22:00.603Z,-0.17
2023-03-07T15:25:05.031Z,-0.34
2023-03-07T15:28:22.203Z,-0.28
2023-03-07T15:31:31.209Z,-0.33
2023-03-07T15:34:38.837Z,-0.36
2023-03-07T15:37:56.866Z,-0.25
2023-03-07T15:41:01.575Z,-0.39
2023-03-07T15:44:19.695Z,-0.54
2023-03-07T15:47:24.913Z,-0.44
2023-03-07T15:50:30.531Z,-0.49
2023-03-07T15:53:38.482Z,-0.71
2023-03-07T15:56:42.485Z,-0.59
2023-03-07T15:59:58.130Z,-0.61
2023-03-07T16:03:28.481Z,-0.63
2023-03-07T16:06:44.176Z,-0.76
2023-03-07T16:09:51.323Z,-0.74
2023-03-07T16:12:55.701Z,-0.56
2023-03-07T16:16:26.827Z,-0.70
2023-03-07T16:19:31.660Z,-0.81
2023-03-07T16:22:36.530Z,-0.62
2023-03-07T16:25:42.983Z,-0.37
2023-03-07T16:29:05.980Z,-0.53
2023-03-07T17:28:14.603Z,-1.74
2023-03-07T17:31:20.108Z,-1.78
2023-03-07T17:34:33.602Z,-1.83
2023-03-07T17:37:37.797Z,-2.05
2023-03-07T17:40:41.875Z,-1.97
2023-03-07T17:43:46.061Z,-2.10
2023-03-07T17:46:50.616Z,-2.18
2023-03-07T17:49:54.478Z,-2.14
2023-03-07T17:52:59.312Z,-2.17
2023-03-07T17:56:12.496Z,-2.13
2023-03-07T17:59:17.111Z,-2.16
2023-03-07T18:02:21.204Z,-2.34
2023-03-07T18:05:26.718Z,-2.69
2023-03-07T18:08:30.959Z,-2.64
2023-03-07T18:11:36.172Z,-2.53
2023-03-07T18:14:40.607Z,-2.27
2023-03-07T18:17:48.700Z,-2.29
2023-03-07T18:21:03.621Z,-2.17
2023-03-07T18:24:20.068Z,-2.18
2023-03-07T18:27:25.760Z,-2.35
2023-03-07T18:30:30.139Z,-2.50
2023-03-07T18:33:35.589Z,-2.38
2023-03-07T18:36:41.943Z,-2.48
2023-03-07T18:39:46.180Z,-2.52
2023-03-07T18:42:50.068Z,-2.35
2023-03-07T18:45:53.922Z,-2.26
2023-03-07T18:49:00.011Z,-2.19
2023-03-07T18:52:04.398Z,-2.34
2023-03-07T18:55:08.977Z,-2.50
2023-03-07T18:58:13.731Z,-2.55
2023-03-07T19:01:38.589Z,-2.43
2023-03-07T19:04:43.570Z,-2.49
2023-03-07T19:07:49.041Z,-2.62
2023-03-07T19:10:52.968Z,-2.67
2023-03-07T19:13:57.799Z,-2.56
2023-03-07T19:17:01.838Z,-2.71
2023-03-07T19:20:06.491Z,-2.23
2023-03-07T19:23:10.452Z,-2.49
2023-03-07T19:26:19.455Z,-2.74
2023-03-07T19:29:23.323Z,-2.75
2023-03-07T19:32:30.119Z,-2.68
2023-03-07T19:35:34.809Z,-2.76
2023-03-07T19:38:39.985Z,-2.46
2023-03-07T19:41:46.361Z,-2.32
2023-03-07T19:44:50.252Z,-2.52
2023-03-07T19:47:56.823Z,-2.63
2023-03-07T19:51:01.610Z,-2.63
2023-03-07T19:54:05.606Z,-2.60
2023-03-07T19:57:12.428Z,-2.81
2023-03-07T20:00:16.727Z,-2.82
2023-03-07T20:03:21.429Z,-2.72
2023-03-07T20:06:28.820Z,-2.76
2023-03-07T20:09:35.864Z,-2.97
2023-03-07T20:12:39.755Z,-3.22
2023-03-07T20:15:54.724Z,-3.29
2023-03-07T20:19:01.165Z,-3.31
2023-03-07T20:22:06.116Z,-3.17
2023-03-07T20:25:10.839Z,-3.07
2023-03-07T20:28:15.224Z,-3.27
2023-03-07T20:31:20.906Z,-3.10
2023-03-07T20:34:25.502Z,-3.21
2023-03-07T20:41:06.824Z,-3.36
2023-03-07T20:44:14.377Z,-3.30
2023-03-07T20:47:18.713Z,-3.28
2023-03-07T20:50:22.647Z,-3.46
2023-03-07T20:53:27.120Z,-3.62
2023-03-07T20:56:33.258Z,-3.79
2023-03-07T20:59:37.536Z,-3.83
2023-03-07T21:02:41.548Z,-3.90
2023-03-07T21:05:45.680Z,-4.00
2023-03-07T21:08:50.002Z,-4.16
2023-03-07T21:11:54.046Z,-4.32
2023-03-07T21:14:58.000Z,-4.48
2023-03-07T21:18:02.048Z,-4.47
2023-03-07T21:21:08.965Z,-4.54
2023-03-07T21:24:13.707Z,-4.59
2023-03-07T21:27:17.454Z,-4.60
2023-03-07T21:30:21.524Z,-4.62
2023-03-07T21:33:25.710Z,-4.64
2023-03-07T21:36:32.213Z,-4.63
2023-03-07T21:39:38.763Z,-5.90
2023-03-07T21:42:43.312Z,-4.76
2023-03-07T21:45:47.912Z,-4.73
2023-03-07T21:48:52.904Z,-4.72
2023-03-07T21:51:56.825Z,-4.73
2023-03-07T21:55:01.004Z,-4.72
2023-03-07T21:58:06.536Z,-5.11
2023-03-07T22:01:23.107Z,-4.49
2023-03-07T22:04:28.784Z,-4.83
2023-03-07T22:07:33.191Z,-4.87
2023-03-07T22:10:37.432Z,-4.85
2023-03-07T22:13:44.741Z,-5.06
2023-03-07T22:16:48.690Z,-4.92
2023-03-07T22:19:52.728Z,-4.90
2023-03-07T22:22:56.831Z,-4.95
2023-03-07T22:26:26.487Z,-4.75
2023-03-07T22:29:30.951Z,-4.62
2023-03-07T22:32:35.315Z,-4.41
2023-03-07T22:35:42.114Z,-4.40
2023-03-07T22:39:08.445Z,-4.07
2023-03-07T22:42:13.249Z,-3.48
2023-03-07T22:45:17.661Z,-1.69
2023-03-07T22:48:21.748Z,-0.45
2023-03-07T22:51:27.526Z,0.53
2023-03-07T22:54:32.027Z,1.17
2023-03-07T22:57:36.375Z,1.07
2023-03-07T23:00:42.352Z,1.37
2023-03-07T23:03:46.232Z,1.90
2023-03-07T23:06:50.248Z,2.33
2023-03-07T23:09:54.283Z,2.53
2023-03-07T23:12:58.328Z,1.67
2023-03-07T23:16:16.892Z,1.30
2023-03-07T23:19:20.998Z,1.15
2023-03-07T23:22:25.232Z,1.42
2023-03-07T23:25:29.508Z,1.42
2023-03-07T23:28:34.510Z,1.57
2023-03-07T23:31:40.967Z,1.04
2023-03-07T23:34:44.880Z,1.01
2023-03-07T23:37:49.169Z,0.89
2023-03-07T23:40:53.192Z,1.17
2023-03-07T23:44:00.122Z,0.73
2023-03-07T23:47:04.056Z,0.69
2023-03-07T23:50:09.764Z,0.60
2023-03-07T23:53:13.774Z,0.76
2023-03-07T23:56:17.653Z,0.53
2023-03-07T23:59:21.667Z,0.35
